Архив погоды в Махачкале

Метеограмма Махачкала
Пятница, 24 Мая
Время местн. Темп Ветер Видим Явления Облачность нижн/средн/верх Атм. давл. Влжн Точка росы ВНГО R Сост. почвы Tg s
Напр Скр Прв ур.ст ур.м изм
09:00 +22.4° В,С-В 2 - 20 км - ясно 761 760 +0.5 60% +14.2° более 2.5 км - - - -
06:00 +20° З,С-З 2 - 20 км небо без изменений {ливневые осадки} облачно с прояснениями 761 759 -0.9 56% +11° 1 км - Влажная (без луж) - -
03:00 +17.4° З 3 - 4 км слабый ливневый дождь облачно 762 760 +0.2 75% +12.9° 1 км - - - -
00:00 +19° З 4 - 4 км ливневый дождь облачно 762 760 -0.1 61% +11.4° 1 км - - - -
Четверг, 23 Мая
Время местн. Темп Ветер Видим Явления Облачность нижн/средн/верх Атм. давл. Влжн Точка росы ВНГО R Сост. почвы Tg s
Напр Скр Прв ур.ст ур.м изм
21:00 +18.4° В,С-В 1 - 4 км дымка {ливневые осадки} преимущественно облачно 762 760 +1.7 84% +15.7° 1 км - - - -
18:00 +19° В 3 - 20 км - преимущественно облачно 760 758 -0.8 76% +14.6° 1 км - - - -
15:00 +19.9° В,Ю-В 2 - 20 км - преимущественно облачно 761 759 -0.6 75% +15.4° 1 км - - - -
12:00 +20.2° В,Ю-В 3 - 20 км - преимущественно облачно 761 760 -0.3 73% +15.2° 1 км - - - -
09:00 +21.6° С-З 3 - 20 км - облачно с прояснениями 762 760 -0.5 61% +13.8° 1 км - - - -
06:00 +16° З,Ю-З 2 - 10 км - переменная облачность 762 761 -0.3 91% +14.5° более 2.5 км - Влажная (без луж) - -
03:00 +14.9° штиль 0 - 4 км дымка {ливневые осадки} облачно с прояснениями 762 761 -0.5 87% +12.8° - - - - -
00:00 +16.9° В,Ю-В 2 - 4 км слабый ливневый дождь облачно 763 761 -0.8 85% +14.4° 1 км - - - -
Среда, 22 Мая
Время местн. Темп Ветер Видим Явления Облачность нижн/средн/верх Атм. давл. Влжн Точка росы ВНГО R Сост. почвы Tg s
Напр Скр Прв ур.ст ур.м изм
21:00 +17.1° Ю-В 4 - 10 км ливневый дождь облачно 764 762 +1.7 75% +12.7° 1 км - - - -
18:00 +18.2° Ю-В 5 11 10 км - облачно 762 760 -0.1 65% +11.6° 1 км - - - -
15:00 +18.5° В,Ю-В 7 16 20 км - преимущественно облачно 762 760 -0.8 70% +13° - - - - -
12:00 +18.8° В,Ю-В 9 15 20 км - преимущественно облачно 763 761 -1.3 67% +12.5° - - - - -
09:00 +18.3° В,Ю-В 7 15 10 км - ясно 764 762 -1.8 66% +11.9° более 2.5 км - - - -
06:00 +16.3° Ю-В 5 - 10 км - ясно 766 764 -0.9 69% +10.6° более 2.5 км - Сухая (без трещин) - -
03:00 +15.9° Ю-В 4 - 10 км - переменная облачность 767 765 -0.8 73% +11° более 2.5 км - - - -
00:00 +16.4° Ю-В 3 - 10 км - ясно 768 766 -0.5 69% +10.8° более 2.5 км - - - -
Вторник, 21 Мая
Время местн. Темп Ветер Видим Явления Облачность нижн/средн/верх Атм. давл. Влжн Точка росы ВНГО R Сост. почвы Tg s
Напр Скр Прв ур.ст ур.м изм
21:00 +17.5° В,Ю-В 5 - 10 км - ясно 768 767 +0.3 68% +11.6° более 2.5 км - - - -
18:00 +18.6° В,Ю-В 4 - 10 км - ясно 768 766 -0.2 60% +10.8° более 2.5 км - - - -
15:00 +20° В 6 10 10 км - ясно 768 766 +0.3 57% +11.2° более 2.5 км - - - -
12:00 +21.3° В,Ю-В 4 - 10 км - ясно 768 766 +0.5 48% +10° более 2.5 км - - - -
09:00 +21° В,Ю-В 4 - 10 км - переменная облачность 767 766 +0.3 54% +11.4° более 2.5 км - - - -
06:00 +18.5° В,Ю-В 4 - 20 км - облачно с прояснениями 767 765 +1 70% +13° 1 км - Влажная (без луж) - -